Time;durP1;ratioP1;P1;durP2;ratioP2;P2;SDS_P1;SDS_P2;PMS_P1;PMS_P2;Temp;Humidity;BMP_temperature;BMP_pressure;BME280_temperature;BME280_humidity;BME280_pressure;Samples;Min_cycle;Max_cycle;Signal;HPM_P1;HPM_P2
2023/07/27 00:00:10;;;;;;;0.40;0.20;;;;;;;15.72;98.03;99945.03;5030510;28;20574;-54
2023/07/27 00:02:37;;;;;;;0.40;0.20;;;;;;;15.80;97.83;99940.13;5031865;28;20458;-54
2023/07/27 00:05:04;;;;;;;0.40;0.20;;;;;;;15.85;98.02;99946.94;5035729;28;20472;-54
2023/07/27 00:07:30;;;;;;;0.40;0.20;;;;;;;15.86;98.12;99940.63;5035895;28;20458;-54
2023/07/27 00:09:57;;;;;;;0.40;0.20;;;;;;;15.73;98.49;99938.72;5035673;28;20539;-54
2023/07/27 00:12:23;;;;;;;0.40;0.20;;;;;;;15.63;99.48;99947.28;5035595;28;20476;-54
2023/07/27 00:14:50;;;;;;;0.40;0.20;;;;;;;15.86;98.74;99940.63;5035278;28;20455;-54
2023/07/27 00:17:17;;;;;;;0.40;0.20;;;;;;;15.92;98.16;99947.47;5035435;28;20459;-54
2023/07/27 00:19:43;;;;;;;0.40;0.20;;;;;;;15.88;98.29;99941.41;5035097;28;20904;-54
2023/07/27 00:22:10;;;;;;;0.40;0.20;;;;;;;15.91;98.43;99941.25;5035455;28;20818;-54
2023/07/27 00:24:36;;;;;;;0.40;0.20;;;;;;;15.82;98.22;99936.41;5019612;28;20503;-54
2023/07/27 00:27:03;;;;;;;0.40;0.20;;;;;;;15.73;98.92;99930.66;5025876;28;20534;-54
2023/07/27 00:29:30;;;;;;;0.40;0.20;;;;;;;15.74;99.51;99932.41;5032644;28;20472;-54
2023/07/27 00:31:56;;;;;;;0.40;0.20;;;;;;;15.87;98.46;99931.63;5026229;28;20455;-54
2023/07/27 00:34:23;;;;;;;0.40;0.20;;;;;;;15.94;98.70;99934.84;5035261;28;20521;-54
2023/07/27 00:36:49;;;;;;;0.40;0.20;;;;;;;16.04;97.64;99930.69;5035052;28;21080;-54
2023/07/27 00:39:16;;;;;;;0.40;0.20;;;;;;;15.96;97.60;99925.75;5035009;28;20940;-54
2023/07/27 00:41:43;;;;;;;0.40;0.20;;;;;;;16.00;97.27;99931.81;5034967;28;20447;-54
2023/07/27 00:44:10;;;;;;;0.40;0.20;;;;;;;16.01;96.98;99922.81;5034750;28;20509;-54
2023/07/27 00:46:37;;;;;;;0.40;0.20;;;;;;;15.89;98.76;99923.50;5034733;28;20929;-54
2023/07/27 00:49:04;;;;;;;0.40;0.20;;;;;;;15.97;98.81;99924.81;5035162;28;20454;-54
2023/07/27 00:51:36;;;;;;;0.40;0.20;;;;;;;15.92;98.72;99921.53;5035053;28;20452;-54
2023/07/27 00:54:04;;;;;;;0.40;0.20;;;;;;;15.84;98.90;99914.84;5034774;28;20528;-54
2023/07/27 00:56:32;;;;;;;0.40;0.20;;;;;;;15.84;98.69;99909.50;5034651;28;20503;-54
2023/07/27 00:59:00;;;;;;;0.40;0.20;;;;;;;15.93;98.35;99909.00;5034793;28;20542;-54
2023/07/27 01:01:27;;;;;;;0.40;0.20;;;;;;;15.88;98.57;99897.66;5025399;28;20490;-54
2023/07/27 01:03:54;;;;;;;0.40;0.20;;;;;;;15.70;99.59;99889.69;5034679;28;20451;-53
2023/07/27 01:06:21;;;;;;;0.40;0.20;;;;;;;15.74;100.00;99889.53;5034386;28;21027;-54
2023/07/27 01:08:48;;;;;;;0.40;0.20;;;;;;;15.85;99.57;99887.09;5034622;28;20459;-54
2023/07/27 01:11:59;;;;;;;0.40;0.20;;;;;;;15.85;99.23;99879.94;5034478;28;20538;-54
2023/07/27 01:14:45;;;;;;;0.40;0.20;;;;;;;15.89;99.24;99885.97;5025696;28;20452;-54
2023/07/27 01:17:22;;;;;;;0.40;0.20;;;;;;;15.83;99.38;99873.78;5034350;28;20559;-54
2023/07/27 01:20:10;;;;;;;0.40;0.20;;;;;;;15.81;99.24;99870.34;5034098;28;20920;-54
2023/07/27 01:22:54;;;;;;;0.40;0.20;;;;;;;15.91;99.06;99874.22;5034357;28;20479;-54
2023/07/27 01:25:38;;;;;;;0.40;0.30;;;;;;;15.91;98.92;99868.88;5005053;28;20508;-54
2023/07/27 01:28:20;;;;;;;0.40;0.20;;;;;;;15.90;98.91;99871.66;5033571;28;20448;-54
2023/07/27 01:30:54;;;;;;;0.40;0.20;;;;;;;15.98;99.04;99861.31;5022686;28;21017;-54
2023/07/27 01:33:52;;;;;;;0.40;0.20;;;;;;;15.78;99.35;99857.13;5034326;28;20444;-54
2023/07/27 01:36:25;;;;;;;0.40;0.20;;;;;;;15.81;99.25;99856.06;5033675;28;21015;-54
2023/07/27 01:38:55;;;;;;;0.40;0.20;;;;;;;15.87;98.92;99845.84;5034096;28;20534;-54
2023/07/27 01:41:23;;;;;;;0.40;0.20;;;;;;;15.83;99.80;99847.00;5032599;28;20515;-54
2023/07/27 01:43:50;;;;;;;0.40;0.20;;;;;;;15.80;99.77;99841.81;5033809;28;21024;-54
2023/07/27 01:46:18;;;;;;;0.40;0.20;;;;;;;15.82;99.92;99839.03;5032585;28;20980;-54
2023/07/27 01:48:47;;;;;;;0.40;0.20;;;;;;;15.62;100.00;99848.19;5033689;28;20466;-54
2023/07/27 01:51:14;;;;;;;0.40;0.20;;;;;;;15.57;100.00;99840.41;5032516;28;20944;-54
2023/07/27 01:53:42;;;;;;;0.40;0.20;;;;;;;15.72;100.00;99832.47;5033674;28;20451;-54
2023/07/27 01:56:12;;;;;;;0.40;0.20;;;;;;;15.70;100.00;99824.53;5033226;28;20526;-54
2023/07/27 01:58:39;;;;;;;0.40;0.20;;;;;;;15.72;100.00;99824.44;5033520;28;20451;-54
2023/07/27 02:01:07;;;;;;;0.40;0.20;;;;;;;15.69;100.00;99823.66;5026615;28;20491;-54
2023/07/27 02:03:35;;;;;;;0.40;0.20;;;;;;;15.70;100.00;99819.16;5030945;28;20475;-54
2023/07/27 02:06:01;;;;;;;0.40;0.20;;;;;;;15.69;100.00;99823.66;5033612;28;20472;-54
2023/07/27 02:08:28;;;;;;;0.40;0.20;;;;;;;15.72;100.00;99813.72;5033472;28;20540;-54
2023/07/27 02:10:59;;;;;;;0.40;0.20;;;;;;;15.74;100.00;99811.81;5033871;28;20479;-54
2023/07/27 02:14:06;;;;;;;0.40;0.20;;;;;;;15.62;100.00;99811.59;5033304;28;20475;-54
2023/07/27 02:16:45;;;;;;;0.40;0.20;;;;;;;15.70;100.00;99809.31;5032823;28;20486;-54
2023/07/27 02:19:16;;;;;;;0.40;0.20;;;;;;;15.67;100.00;99811.31;5033298;28;20463;-54
2023/07/27 02:21:45;;;;;;;0.40;0.20;;;;;;;15.80;100.00;99806.09;5033175;28;20451;-54
2023/07/27 02:24:13;;;;;;;0.40;0.20;;;;;;;15.69;100.00;99802.22;5021151;28;20527;-54
2023/07/27 02:26:41;;;;;;;0.40;0.20;;;;;;;15.75;100.00;99794.78;5006518;28;20559;-54
2023/07/27 02:29:08;;;;;;;0.40;0.20;;;;;;;15.70;100.00;99801.28;5032880;28;20957;-54
2023/07/27 02:31:34;;;;;;;0.40;0.20;;;;;;;15.80;100.00;99792.72;5020619;28;20506;-54
2023/07/27 02:34:01;;;;;;;0.40;0.20;;;;;;;15.80;100.00;99785.53;5032856;28;20455;-54
2023/07/27 02:36:27;;;;;;;0.40;0.20;;;;;;;15.90;100.00;99781.38;5032889;28;20467;-54
2023/07/27 02:38:54;;;;;;;0.40;0.20;;;;;;;15.98;100.00;99791.63;5032688;28;20449;-54
2023/07/27 02:41:20;;;;;;;0.40;0.20;;;;;;;15.98;100.00;99784.44;5032966;28;20934;-54
2023/07/27 02:43:49;;;;;;;0.40;0.20;;;;;;;15.95;100.00;99786.44;5031717;28;20467;-54
2023/07/27 02:46:15;;;;;;;0.40;0.20;;;;;;;15.96;100.00;99782.81;5032744;28;20918;-54
2023/07/27 02:48:42;;;;;;;0.40;0.20;;;;;;;15.93;100.00;99780.31;5032709;28;20535;-54
2023/07/27 02:51:08;;;;;;;0.40;0.20;;;;;;;15.90;100.00;99783.19;5032704;28;20475;-54
2023/07/27 02:53:35;;;;;;;0.40;0.20;;;;;;;15.84;100.00;99779.03;5032751;28;20527;-54
2023/07/27 02:56:03;;;;;;;0.40;0.20;;;;;;;15.92;100.00;99783.97;5032797;28;20554;-54
2023/07/27 02:58:29;;;;;;;0.40;0.20;;;;;;;15.90;100.00;99778.69;5032587;28;20471;-54
2023/07/27 03:01:02;;;;;;;0.40;0.20;;;;;;;15.93;100.00;99786.53;5027134;28;20523;-54
2023/07/27 03:03:29;;;;;;;0.40;0.20;;;;;;;15.93;100.00;99791.03;5026010;28;20455;-54
2023/07/27 03:06:03;;;;;;;0.40;0.20;;;;;;;15.96;99.35;99786.34;5032347;28;20483;-54
2023/07/27 03:08:30;;;;;;;0.40;0.20;;;;;;;15.98;99.54;99783.59;5031727;28;20455;-54
2023/07/27 03:11:02;;;;;;;0.40;0.20;;;;;;;15.85;100.00;99775.41;5032783;28;20501;-54
2023/07/27 03:13:29;;;;;;;0.40;0.20;;;;;;;15.84;100.00;99779.03;5032265;28;20569;-54
2023/07/27 03:15:56;;;;;;;0.40;0.20;;;;;;;15.85;100.00;99779.88;5032866;28;20545;-52
2023/07/27 03:18:23;;;;;;;0.40;0.20;;;;;;;15.82;100.00;99778.25;5032081;28;20501;-52
2023/07/27 03:20:50;;;;;;;0.40;0.20;;;;;;;15.93;100.00;99780.31;5032131;28;20858;-52
2023/07/27 03:23:16;;;;;;;0.40;0.20;;;;;;;15.90;100.00;99767.97;5027604;28;20536;-52
2023/07/27 03:25:43;;;;;;;0.40;0.20;;;;;;;15.86;100.00;99777.13;5012668;28;20571;-52
2023/07/27 03:28:09;;;;;;;0.50;0.43;;;;;;;15.97;100.00;99771.13;5031462;28;20498;-52
2023/07/27 03:30:38;;;;;;;0.40;0.20;;;;;;;15.88;100.00;99772.53;5020671;28;20480;-52
2023/07/27 03:33:07;;;;;;;0.40;0.20;;;;;;;15.86;100.00;99766.41;5032038;28;20498;-54
2023/07/27 03:35:35;;;;;;;0.40;0.20;;;;;;;15.95;100.00;99771.22;5032228;28;20551;-52
2023/07/27 03:38:02;;;;;;;0.40;0.20;;;;;;;16.09;100.00;99773.09;5032058;28;20518;-52
2023/07/27 03:40:29;;;;;;;0.40;0.20;;;;;;;16.11;100.00;99768.50;5032127;28;20530;-52
2023/07/27 03:42:55;;;;;;;0.40;0.20;;;;;;;16.00;100.00;99763.75;5032045;28;20474;-51
2023/07/27 03:45:22;;;;;;;0.40;0.20;;;;;;;16.00;100.00;99758.41;5031884;28;20517;-52
2023/07/27 03:47:48;;;;;;;0.40;0.20;;;;;;;16.08;100.00;99763.31;5032232;28;20483;-51
2023/07/27 03:50:15;;;;;;;0.40;0.20;;;;;;;16.09;100.00;99765.03;5032093;28;20444;-52
2023/07/27 03:52:41;;;;;;;0.40;0.20;;;;;;;15.96;100.00;99764.03;5030857;28;20447;-52
2023/07/27 03:55:08;;;;;;;0.40;0.20;;;;;;;15.91;100.00;99752.75;5031860;28;20506;-51
2023/07/27 03:57:34;;;;;;;0.40;0.20;;;;;;;16.00;100.00;99753.03;5031920;28;20542;-52
2023/07/27 04:00:01;;;;;;;0.40;0.20;;;;;;;15.91;100.00;99752.75;5026255;28;20610;-53
2023/07/27 04:02:28;;;;;;;0.40;0.20;;;;;;;15.86;100.00;99752.13;5027586;28;20463;-52
2023/07/27 04:04:55;;;;;;;0.40;0.20;;;;;;;15.83;100.00;99752.31;5031741;28;20999;-51
2023/07/27 04:07:21;;;;;;;0.40;0.20;;;;;;;15.87;100.00;99761.91;5031577;28;20843;-52
2023/07/27 04:09:48;;;;;;;0.40;0.20;;;;;;;15.77;100.00;99764.28;5031618;28;20454;-53
2023/07/27 04:12:14;;;;;;;0.40;0.20;;;;;;;15.78;100.00;99752.59;5031911;28;20486;-52
2023/07/27 04:14:41;;;;;;;0.40;0.20;;;;;;;15.91;100.00;99750.94;5031533;28;20487;-52
2023/07/27 04:17:09;;;;;;;0.40;0.20;;;;;;;15.92;100.00;99747.28;5031758;28;20542;-51
2023/07/27 04:19:36;;;;;;;0.40;0.20;;;;;;;16.07;100.00;99733.94;5032209;28;20447;-52
2023/07/27 04:22:02;;;;;;;0.40;0.20;;;;;;;16.03;100.00;99741.25;5035281;28;20984;-52
2023/07/27 04:24:29;;;;;;;0.40;0.20;;;;;;;16.08;100.00;99739.19;5020599;28;20484;-53
2023/07/27 04:26:56;;;;;;;0.40;0.20;;;;;;;16.07;100.00;99734.78;5024010;28;20475;-52
2023/07/27 04:29:22;;;;;;;0.40;0.20;;;;;;;16.00;100.00;99736.94;5033792;28;20534;-52
2023/07/27 04:31:48;;;;;;;0.40;0.20;;;;;;;15.98;100.00;99738.00;5024761;28;20514;-52
2023/07/27 04:34:15;;;;;;;0.40;0.20;;;;;;;15.97;100.00;99737.13;5035152;28;20495;-51
2023/07/27 04:36:41;;;;;;;0.40;0.20;;;;;;;16.12;100.00;99734.50;5035048;28;20479;-52
2023/07/27 04:39:08;;;;;;;0.40;0.20;;;;;;;16.14;100.00;99729.91;5034886;28;20543;-52
2023/07/27 04:41:34;;;;;;;0.40;0.20;;;;;;;16.28;100.00;99729.91;5033518;28;20530;-52
2023/07/27 04:44:01;;;;;;;0.50;0.50;;;;;;;16.28;100.00;99733.47;5035048;28;20479;-52
2023/07/27 04:46:27;;;;;;;0.40;0.20;;;;;;;16.16;100.00;99731.53;5034937;28;20903;-52
2023/07/27 04:48:54;;;;;;;0.40;0.20;;;;;;;16.23;100.00;99730.22;5034831;28;20452;-51
2023/07/27 04:51:20;;;;;;;0.40;0.20;;;;;;;16.25;100.00;99722.94;5035001;28;20527;-52
2023/07/27 04:53:47;;;;;;;4.00;2.20;;;;;;;16.13;100.00;99723.69;5034737;28;20476;-52
2023/07/27 04:56:13;;;;;;;0.40;0.20;;;;;;;16.30;100.00;99722.63;5034697;28;20558;-52
2023/07/27 04:58:42;;;;;;;4.63;3.60;;;;;;;16.34;100.00;99723.34;5034568;28;20509;-52
2023/07/27 05:01:09;;;;;;;0.40;0.20;;;;;;;16.36;100.00;99721.41;5027667;28;20966;-52
2023/07/27 05:03:35;;;;;;;0.40;0.20;;;;;;;16.37;100.00;99723.16;5032168;28;20447;-52
2023/07/27 05:06:02;;;;;;;0.40;0.20;;;;;;;16.64;100.00;99709.84;5034538;28;20558;-52
2023/07/27 05:08:29;;;;;;;0.40;0.20;;;;;;;16.65;100.00;99707.06;5034465;28;20527;-51
2023/07/27 05:10:55;;;;;;;0.50;0.40;;;;;;;16.70;100.00;99710.31;5034395;28;20868;-52
2023/07/27 05:13:22;;;;;;;0.40;0.20;;;;;;;16.82;100.00;99703.31;5034358;28;20495;-52
2023/07/27 05:15:48;;;;;;;0.40;0.20;;;;;;;16.69;100.00;99700.56;5034442;28;20558;-52
2023/07/27 05:18:15;;;;;;;0.40;0.20;;;;;;;16.68;100.00;99696.16;5034274;28;20494;-52
2023/07/27 05:20:42;;;;;;;0.40;0.20;;;;;;;16.75;100.00;99696.63;5034373;28;20527;-52
2023/07/27 05:23:08;;;;;;;0.40;0.20;;;;;;;16.83;100.00;99691.63;5029287;28;20441;-52
2023/07/27 05:25:35;;;;;;;0.40;0.20;;;;;;;16.83;100.00;99691.63;5014566;28;20473;-53
2023/07/27 05:28:02;;;;;;;0.40;0.20;;;;;;;16.91;100.00;99688.47;5031506;28;20546;-52
2023/07/27 05:30:29;;;;;;;0.40;0.20;;;;;;;17.08;100.00;99685.53;5023703;28;20459;-52
2023/07/27 05:32:55;;;;;;;0.40;0.20;;;;;;;16.92;100.00;99676.75;5031665;28;20832;-51
2023/07/27 05:35:22;;;;;;;0.40;0.20;;;;;;;16.77;100.00;99679.47;5033844;28;20566;-51
2023/07/27 05:37:48;;;;;;;0.40;0.20;;;;;;;16.87;100.00;99669.88;5033710;28;20953;-52
2023/07/27 05:40:15;;;;;;;0.40;0.20;;;;;;;16.86;100.00;99667.28;5033954;28;20455;-53
2023/07/27 05:42:42;;;;;;;0.40;0.20;;;;;;;16.87;100.00;99661.81;5033962;28;20566;-52
2023/07/27 05:45:09;;;;;;;0.40;0.20;;;;;;;16.87;100.00;99653.78;5034066;28;20467;-52
2023/07/27 05:47:36;;;;;;;0.40;0.20;;;;;;;16.91;100.00;99661.63;5033905;28;20874;-52
2023/07/27 05:50:03;;;;;;;0.40;0.20;;;;;;;17.07;100.00;99651.59;5033789;28;20452;-52
2023/07/27 05:52:29;;;;;;;0.40;0.20;;;;;;;16.98;100.00;99653.03;5033448;28;20535;-53
2023/07/27 05:54:56;;;;;;;0.40;0.20;;;;;;;16.98;100.00;99644.13;5032340;28;21044;-52
2023/07/27 05:57:22;;;;;;;0.40;0.20;;;;;;;17.12;100.00;99647.63;5033474;28;20546;-52
2023/07/27 05:59:48;;;;;;;0.40;0.20;;;;;;;17.38;100.00;99647.72;5028520;28;20496;-51
2023/07/27 06:02:29;;;;;;;0.40;0.20;;;;;;;17.32;100.00;99648.16;5028950;28;20487;-52
2023/07/27 06:04:55;;;;;;;0.40;0.20;;;;;;;17.29;100.00;99638.47;5033278;28;20891;-52
2023/07/27 06:07:22;;;;;;;0.40;0.20;;;;;;;17.27;100.00;99640.41;5033499;28;20885;-52
2023/07/27 06:09:48;;;;;;;0.40;0.20;;;;;;;17.51;100.00;99645.09;5033410;28;20512;-52
2023/07/27 06:12:15;;;;;;;0.40;0.20;;;;;;;17.59;100.00;99635.56;5033525;28;20494;-52
2023/07/27 06:14:41;;;;;;;0.90;0.90;;;;;;;17.46;100.00;99646.25;5033196;28;20559;-52
2023/07/27 06:17:08;;;;;;;0.40;0.20;;;;;;;17.40;100.00;99643.97;5033107;28;20517;-52
2023/07/27 06:19:35;;;;;;;0.40;0.20;;;;;;;17.32;100.00;99640.09;5033075;28;20444;-51
2023/07/27 06:22:01;;;;;;;0.40;0.20;;;;;;;17.30;100.00;99642.88;5033337;28;20582;-51
2023/07/27 06:24:28;;;;;;;0.40;0.20;;;;;;;17.31;100.00;99636.56;5018711;28;20531;-52
2023/07/27 06:26:55;;;;;;;0.40;0.20;;;;;;;17.37;100.00;99636.13;5022389;28;20553;-51
2023/07/27 06:29:21;;;;;;;0.40;0.20;;;;;;;17.29;100.00;99629.56;5031756;28;20426;-52
2023/07/27 06:31:48;;;;;;;0.40;0.20;;;;;;;17.43;100.00;99630.34;5022652;28;20874;-52
2023/07/27 06:34:14;;;;;;;0.40;0.20;;;;;;;17.49;100.00;99634.44;5032726;28;20944;-52
2023/07/27 06:36:41;;;;;;;0.53;0.53;;;;;;;17.56;100.00;99634.91;5033142;28;20546;-52
2023/07/27 06:39:08;;;;;;;1.07;1.07;;;;;;;17.56;100.00;99626.84;5033095;28;20538;-52
2023/07/27 06:41:35;;;;;;;0.40;0.20;;;;;;;17.97;100.00;99629.41;5032885;28;20570;-52
2023/07/27 06:44:01;;;;;;;0.40;0.20;;;;;;;17.94;100.00;99630.44;5032637;28;20491;-52
2023/07/27 06:46:28;;;;;;;0.40;0.20;;;;;;;17.78;100.00;99643.25;5032663;28;20553;-52
2023/07/27 06:48:55;;;;;;;0.40;0.20;;;;;;;17.90;100.00;99639.72;5032824;28;20463;-52
2023/07/27 06:51:23;;;;;;;0.40;0.20;;;;;;;17.70;100.00;99637.53;5032971;28;20877;-53
2023/07/27 06:53:50;;;;;;;0.40;0.20;;;;;;;17.60;100.00;99645.34;5032647;28;20452;-52
2023/07/27 06:56:19;;;;;;;0.40;0.20;;;;;;;17.47;100.00;99636.38;5032527;28;20475;-51
2023/07/27 06:58:46;;;;;;;0.40;0.20;;;;;;;17.50;100.00;99646.06;5032353;28;20521;-51
2023/07/27 07:01:12;;;;;;;0.40;0.20;;;;;;;17.36;100.00;99642.47;5024613;28;20578;-52
2023/07/27 07:03:39;;;;;;;0.40;0.20;;;;;;;17.32;100.00;99630.22;5030611;28;20547;-53
2023/07/27 07:06:05;;;;;;;0.40;0.20;;;;;;;17.37;100.00;99636.13;5031112;28;20471;-53
2023/07/27 07:08:32;;;;;;;0.40;0.20;;;;;;;17.19;100.00;99623.94;5032068;28;20458;-53
2023/07/27 07:10:58;;;;;;;0.40;0.20;;;;;;;17.20;100.00;99628.34;5032429;28;20454;-53
2023/07/27 07:13:26;;;;;;;0.40;0.20;;;;;;;17.38;100.00;99627.09;5032376;28;20455;-53
2023/07/27 07:15:52;;;;;;;0.40;0.20;;;;;;;17.55;100.00;99633.19;5032489;28;20522;-53
2023/07/27 07:18:18;;;;;;;0.40;0.20;;;;;;;17.53;100.00;99633.25;5032506;28;20499;-53
2023/07/27 07:20:46;;;;;;;0.40;0.20;;;;;;;17.59;100.00;99629.31;5032179;28;20447;-53
2023/07/27 07:23:15;;;;;;;0.40;0.20;;;;;;;17.61;100.00;99622.00;5026579;28;20448;-53
2023/07/27 07:25:42;;;;;;;0.50;0.20;;;;;;;17.70;100.00;99616.91;5012858;28;20476;-53
2023/07/27 07:28:08;;;;;;;0.40;0.20;;;;;;;17.69;100.00;99608.94;5031717;28;20491;-53
2023/07/27 07:30:38;;;;;;;0.40;0.20;;;;;;;17.84;100.00;99597.13;5020929;28;20934;-53
2023/07/27 07:33:05;;;;;;;0.40;0.20;;;;;;;17.81;100.00;99589.25;5006677;28;20850;-53
2023/07/27 07:35:38;;;;;;;0.40;0.20;;;;;;;17.87;100.00;99596.03;5030763;28;20467;-53
2023/07/27 07:38:07;;;;;;;0.40;0.20;;;;;;;17.87;100.00;99582.59;5032292;28;20535;-53
2023/07/27 07:40:34;;;;;;;0.40;0.20;;;;;;;17.84;100.00;99583.69;5031869;28;20452;-54
2023/07/27 07:43:00;;;;;;;0.40;0.20;;;;;;;17.92;100.00;99589.38;5032274;28;20495;-53
2023/07/27 07:45:27;;;;;;;0.40;0.20;;;;;;;17.88;100.00;99585.19;5032047;28;20496;-53
2023/07/27 07:47:54;;;;;;;0.40;0.20;;;;;;;18.13;100.00;99584.31;5032012;28;20547;-53
2023/07/27 07:50:21;;;;;;;0.40;0.20;;;;;;;17.80;100.00;99587.53;5032183;28;20451;-53
2023/07/27 07:52:48;;;;;;;0.40;0.20;;;;;;;18.00;100.00;99589.69;5031862;28;20448;-54
2023/07/27 07:55:17;;;;;;;0.40;0.20;;;;;;;17.96;100.00;99596.28;5033228;28;20932;-51
2023/07/27 07:57:43;;;;;;;0.40;0.20;;;;;;;17.89;100.00;99591.41;5035934;28;20469;-52
2023/07/27 08:00:10;;;;;;;0.40;0.20;;;;;;;17.72;100.00;99580.00;5030763;28;20495;-52
2023/07/27 08:02:40;;;;;;;0.40;0.20;;;;;;;17.86;100.00;99567.44;5031145;28;20491;-52
2023/07/27 08:05:07;;;;;;;0.40;0.20;;;;;;;17.79;100.00;99560.75;5035589;28;20491;-52
2023/07/27 08:07:33;;;;;;;0.40;0.20;;;;;;;17.55;100.00;99558.78;5035650;28;20447;-52
2023/07/27 08:10:02;;;;;;;0.40;0.20;;;;;;;17.70;100.00;99548.84;5035429;28;20968;-52
2023/07/27 08:12:28;;;;;;;0.40;0.20;;;;;;;17.79;100.00;99555.38;5035799;28;20426;-52
2023/07/27 08:14:55;;;;;;;0.40;0.20;;;;;;;17.96;100.00;99564.00;5035536;28;20482;-52
2023/07/27 08:17:22;;;;;;;0.40;0.20;;;;;;;17.94;100.00;99559.66;5035700;28;21010;-52
2023/07/27 08:19:49;;;;;;;0.40;0.20;;;;;;;17.97;100.00;99554.09;5035463;28;20494;-52
2023/07/27 08:22:15;;;;;;;0.40;0.20;;;;;;;17.99;100.00;99549.47;5035389;28;20502;-53
2023/07/27 08:24:43;;;;;;;0.40;0.20;;;;;;;17.90;100.00;99547.44;5018833;28;20482;-52
2023/07/27 08:27:10;;;;;;;0.40;0.20;;;;;;;17.99;100.00;99547.63;5026600;28;20451;-52
2023/07/27 08:29:37;;;;;;;0.40;0.20;;;;;;;17.97;100.00;99541.53;5031974;28;20510;-52
2023/07/27 08:32:04;;;;;;;0.40;0.20;;;;;;;17.99;100.00;99538.72;5026644;28;20443;-52
2023/07/27 08:34:30;;;;;;;0.40;0.20;;;;;;;18.09;100.00;99546.97;5035154;28;20482;-53
2023/07/27 08:36:57;;;;;;;0.40;0.20;;;;;;;18.02;100.00;99552.78;5035068;28;20593;-53
2023/07/27 08:39:24;;;;;;;0.40;0.20;;;;;;;18.26;100.00;99555.56;5035290;28;20455;-52
2023/07/27 08:41:51;;;;;;;0.40;0.20;;;;;;;18.21;100.00;99549.63;5035322;28;20576;-52
2023/07/27 08:44:17;;;;;;;0.40;0.20;;;;;;;18.11;100.00;99545.06;5035055;28;20509;-53
2023/07/27 08:46:45;;;;;;;0.40;0.20;;;;;;;18.42;100.00;99551.75;5035029;28;20475;-53
2023/07/27 08:49:15;;;;;;;0.40;0.20;;;;;;;18.42;100.00;99549.06;5035008;28;20537;-53
2023/07/27 08:51:43;;;;;;;0.40;0.20;;;;;;;18.18;100.00;99549.88;5034769;28;20972;-53
2023/07/27 08:54:10;;;;;;;0.40;0.20;;;;;;;18.28;100.00;99555.47;5034807;28;20439;-53
2023/07/27 08:56:37;;;;;;;0.40;0.20;;;;;;;18.49;100.00;99543.09;5034596;28;20521;-53
2023/07/27 08:59:04;;;;;;;0.40;0.20;;;;;;;18.38;100.00;99550.28;5034961;28;20513;-53
2023/07/27 09:01:31;;;;;;;0.40;0.20;;;;;;;18.69;100.00;99543.53;5024972;28;20502;-53
2023/07/27 09:03:58;;;;;;;0.40;0.20;;;;;;;18.53;100.00;99547.31;5034553;28;20978;-53
2023/07/27 09:06:43;;;;;;;0.40;0.20;;;;;;;18.62;100.00;99543.06;5034575;28;20446;-53
2023/07/27 09:09:25;;;;;;;0.40;0.20;;;;;;;18.66;100.00;99546.47;5034913;28;20426;-53
2023/07/27 09:11:54;;;;;;;0.40;0.20;;;;;;;18.77;100.00;99538.41;5034462;28;20509;-53
2023/07/27 09:14:21;;;;;;;0.40;0.20;;;;;;;18.87;100.00;99536.75;5034701;28;20951;-53
2023/07/27 09:16:49;;;;;;;0.40;0.20;;;;;;;18.91;100.00;99540.94;5034416;28;20511;-53
2023/07/27 09:19:17;;;;;;;0.40;0.20;;;;;;;18.75;100.00;99534.97;5034497;28;20538;-53
2023/07/27 09:21:45;;;;;;;0.40;0.20;;;;;;;18.74;100.00;99531.44;5008121;28;20498;-53
2023/07/27 09:24:13;;;;;;;0.40;0.20;;;;;;;18.84;100.00;99527.09;5021958;28;20449;-53
2023/07/27 09:26:48;;;;;;;0.40;0.20;;;;;;;18.91;100.00;99527.47;5021699;28;20558;-53
2023/07/27 09:29:16;;;;;;;0.40;0.20;;;;;;;19.21;100.00;99535.09;5033637;28;20447;-53
2023/07/27 09:31:57;;;;;;;0.40;0.20;;;;;;;19.15;100.00;99527.47;5023725;28;20510;-53
2023/07/27 09:34:29;;;;;;;0.40;0.20;;;;;;;19.05;100.00;99527.31;5033992;28;20444;-53
2023/07/27 09:36:56;;;;;;;0.40;0.20;;;;;;;19.29;100.00;99512.94;5034097;28;20519;-53
2023/07/27 09:39:26;;;;;;;0.40;0.20;;;;;;;19.18;100.00;99516.44;5033827;28;20451;-52
2023/07/27 09:41:53;;;;;;;0.40;0.20;;;;;;;18.97;100.00;99512.69;5034255;28;20484;-53
2023/07/27 09:44:24;;;;;;;0.40;0.20;;;;;;;19.00;100.00;99513.31;5034223;28;20463;-53
2023/07/27 09:46:50;;;;;;;0.40;0.20;;;;;;;19.10;100.00;99514.34;5033892;28;20875;-53
2023/07/27 09:49:18;;;;;;;0.40;0.20;;;;;;;19.11;100.00;99504.44;5034060;28;20535;-53
2023/07/27 09:51:46;;;;;;;0.40;0.20;;;;;;;19.12;100.00;99507.00;5033785;28;20448;-53
2023/07/27 09:54:13;;;;;;;0.40;0.20;;;;;;;19.11;100.00;99507.13;5033941;28;20782;-53
2023/07/27 09:56:40;;;;;;;0.40;0.20;;;;;;;19.31;100.00;99500.19;5033799;28;20476;-53
2023/07/27 09:59:07;;;;;;;1.17;1.17;;;;;;;19.24;100.00;99508.75;5033902;28;20487;-53
2023/07/27 10:01:34;;;;;;;1.73;1.63;;;;;;;19.19;100.00;99516.34;5023975;28;20468;-53
2023/07/27 10:04:00;;;;;;;0.40;0.20;;;;;;;19.10;100.00;99514.34;5033714;28;20452;-53
2023/07/27 10:06:29;;;;;;;0.40;0.20;;;;;;;19.23;100.00;99514.28;5033394;28;20487;-53
2023/07/27 10:08:56;;;;;;;0.40;0.20;;;;;;;19.15;100.00;99509.44;5033349;28;20510;-53
2023/07/27 10:11:30;;;;;;;0.40;0.20;;;;;;;18.93;100.00;99512.94;5033509;28;20456;-53
2023/07/27 10:14:15;;;;;;;0.40;0.20;;;;;;;18.91;100.00;99514.00;5032345;28;20533;-53
2023/07/27 10:16:58;;;;;;;0.40;0.20;;;;;;;18.87;100.00;99507.13;5033055;28;20486;-53
2023/07/27 10:19:37;;;;;;;0.40;0.20;;;;;;;19.00;100.00;99499.00;5033102;28;20447;-53
2023/07/27 10:22:08;;;;;;;0.40;0.20;;;;;;;19.03;100.00;99506.84;5033705;28;20522;-53
2023/07/27 10:24:46;;;;;;;0.40;0.20;;;;;;;19.00;100.00;99499.84;5017968;28;20456;-53
2023/07/27 10:27:13;;;;;;;0.40;0.20;;;;;;;18.98;100.00;99496.41;5025765;28;20451;-53
2023/07/27 10:29:45;;;;;;;0.40;0.20;;;;;;;19.11;100.00;99486.44;5029603;28;20516;-52
2023/07/27 10:32:12;;;;;;;0.40;0.20;;;;;;;18.97;100.00;99493.84;5026773;28;20526;-53
2023/07/27 10:34:39;;;;;;;0.40;0.20;;;;;;;19.15;100.00;99490.59;5033062;28;20498;-53
2023/07/27 10:37:10;;;;;;;0.40;0.20;;;;;;;19.23;100.00;99484.63;5033007;28;20456;-52
2023/07/27 10:39:47;;;;;;;0.40;0.20;;;;;;;19.22;100.00;99486.47;5033074;28;20534;-52
2023/07/27 10:42:15;;;;;;;0.40;0.20;;;;;;;19.26;100.00;99476.31;5032693;28;20495;-52
2023/07/27 10:44:43;;;;;;;0.40;0.20;;;;;;;19.25;100.00;99479.97;5033007;28;20445;-52
2023/07/27 10:47:14;;;;;;;0.40;0.20;;;;;;;19.31;100.00;99475.94;5032743;28;20458;-52
2023/07/27 10:49:43;;;;;;;0.50;0.50;;;;;;;19.56;100.00;99483.00;5032536;28;21003;-52
2023/07/27 10:52:18;;;;;;;0.40;0.20;;;;;;;19.68;100.00;99479.34;5032618;28;20538;-52
2023/07/27 10:54:46;;;;;;;0.40;0.20;;;;;;;19.60;100.00;99470.97;5032407;28;20475;-52
2023/07/27 10:57:14;;;;;;;0.40;0.30;;;;;;;19.68;100.00;99480.19;5032705;28;20451;-52
2023/07/27 10:59:43;;;;;;;0.40;0.20;;;;;;;19.75;100.00;99475.19;5028684;28;20480;-52
2023/07/27 11:02:14;;;;;;;0.40;0.20;;;;;;;19.80;100.00;99473.84;5027278;28;20491;-52
2023/07/27 11:04:41;;;;;;;0.40;0.20;;;;;;;19.61;100.00;99472.72;5032610;28;20451;-52
2023/07/27 11:07:11;;;;;;;0.40;0.20;;;;;;;19.93;100.00;99472.84;5032212;28;20957;-52
2023/07/27 11:09:45;;;;;;;0.40;0.20;;;;;;;19.86;100.00;99460.81;5032239;28;20949;-52
2023/07/27 11:12:11;;;;;;;0.40;0.20;;;;;;;19.81;100.00;99464.75;5032575;28;20452;-52
2023/07/27 11:14:38;;;;;;;0.40;0.20;;;;;;;19.86;100.00;99455.44;5032277;28;20533;-53
2023/07/27 11:17:04;;;;;;;0.40;0.20;;;;;;;19.77;100.00;99463.28;5032351;28;20511;-53
2023/07/27 11:19:31;;;;;;;0.40;0.20;;;;;;;19.76;100.00;99458.88;5032103;28;20451;-53
2023/07/27 11:21:58;;;;;;;0.40;0.20;;;;;;;19.91;100.00;99451.41;5032412;28;20472;-53
2023/07/27 11:24:25;;;;;;;0.40;0.20;;;;;;;19.81;100.00;99462.06;5017153;28;20536;-53
2023/07/27 11:26:51;;;;;;;0.40;0.20;;;;;;;19.90;100.00;99457.78;5020998;28;21007;-52
2023/07/27 11:29:18;;;;;;;0.40;0.20;;;;;;;20.03;100.00;99454.94;5030555;28;20483;-53
2023/07/27 11:32:11;;;;;;;0.40;0.20;;;;;;;19.94;100.00;99459.25;5021518;28;20447;-53